This is the latest recevied weather packets stored in our database for station/object Oberstadn. If no packets are shown the sender has not sent any weather packets the latest 10 day(s).
| Time | Temp. | Humidity | Pressure | Rain* | Wind** | Luminosity | Snow |
|---|---|---|---|---|---|---|---|
| 1777921329 | 17.78° C | 59% | 1011.8 hPa | 0 mm | - | - | - |
| 1777919529 | 18.33° C | 56% | 1011.9 hPa | 0 mm | - | - | - |
| 1777917734 | 19.44° C | 53% | 1011.4 hPa | 0 mm | - | - | - |
| 1777915929 | 20° C | 53% | 1011.1 hPa | 0 mm | - | - | - |
| 1777914130 | 20.56° C | 53% | 1011.1 hPa | 0 mm | - | - | - |
| 1777912332 | 21.11° C | 52% | 1011.2 hPa | 0 mm | - | - | - |
| 1777910530 | 21.67° C | 46% | 1011 hPa | 0 mm | - | - | - |
| 1777908732 | 23.33° C | 39% | 1011.2 hPa | 0 mm | - | - | - |
| 1777906930 | 23.33° C | 39% | 1011.1 hPa | 0 mm | - | - | - |
| 1777905129 | 23.33° C | 39% | 1011.4 hPa | 0 mm | - | - | - |
| 1777903330 | 23.33° C | 38% | 1011.6 hPa | 0 mm | - | - | - |
| 1777901532 | 22.78° C | 39% | 1011.8 hPa | 0 mm | - | - | - |
| 1777899735 | 22.78° C | 47% | 1012 hPa | 0 mm | - | - | - |
| 1777897935 | 21.67° C | 47% | 1012.4 hPa | 0 mm | - | - | - |
| 1777896130 | 21.11° C | 49% | 1012.6 hPa | 0 mm | - | - | - |
| 1777894331 | 21.11° C | 48% | 1012.8 hPa | 0 mm | - | - | - |
| 1777892530 | 21.11° C | 45% | 1012.9 hPa | 0 mm | - | - | - |
| 1777890735 | 21.11° C | 47% | 1013.3 hPa | 0 mm | - | - | - |
| 1777888932 | 21.11° C | 47% | 1013.4 hPa | 0 mm | - | - | - |
| 1777887130 | 21.11° C | 44% | 1013.8 hPa | 0 mm | - | - | - |
| 1777885331 | 21.11° C | 47% | 1014 hPa | 0 mm | - | - | - |
| 1777883533 | 18.89° C | 54% | 1014.1 hPa | 0 mm | - | - | - |
| 1777881731 | 16.67° C | 64% | 1014.3 hPa | 0 mm | - | - | - |
| 1777879930 | 15.56° C | 68% | 1014.5 hPa | 0 mm | - | - | - |
| 1777878132 | 13.33° C | 73% | 1014.5 hPa | 0 mm | - | - | - |
* Rain since midnight (hover to see other rain measurements)
** Current wind speed in m/s (hover to see current wind gust speed)